createdAt,value
2022-08-23T00:01:24.248Z,25.68
2022-08-23T00:03:53.486Z,25.71
2022-08-23T00:06:22.157Z,25.57
2022-08-23T00:08:50.734Z,25.43
2022-08-23T00:11:32.942Z,25.23
2022-08-23T00:14:08.485Z,25.24
2022-08-23T00:16:35.740Z,25.21
2022-08-23T00:19:07.482Z,25.25
2022-08-23T00:21:36.501Z,25.14
2022-08-23T00:24:05.286Z,25.21
2022-08-23T00:26:51.854Z,25.18
2022-08-23T00:29:19.008Z,25.22
2022-08-23T00:31:45.780Z,25.07
2022-08-23T00:34:13.228Z,25.02
2022-08-23T00:36:40.423Z,24.88
2022-08-23T00:39:07.611Z,24.90
2022-08-23T00:41:35.407Z,24.85
2022-08-23T00:44:21.550Z,24.67
2022-08-23T00:47:10.681Z,24.62
2022-08-23T00:49:39.796Z,24.70
2022-08-23T00:52:15.014Z,24.46
2022-08-23T00:54:43.103Z,24.60
2022-08-23T00:57:13.477Z,24.68
2022-08-23T00:59:40.620Z,24.34
2022-08-23T01:02:08.647Z,24.73
2022-08-23T01:04:41.685Z,24.73
2022-08-23T01:07:18.241Z,24.54
2022-08-23T01:09:47.620Z,24.55
2022-08-23T01:12:33.112Z,24.57
2022-08-23T01:15:07.374Z,24.59
2022-08-23T01:18:05.937Z,24.53
2022-08-23T01:20:42.509Z,24.19
2022-08-23T01:23:21.258Z,24.48
2022-08-23T01:25:48.194Z,24.45
2022-08-23T01:28:14.873Z,24.46
2022-08-23T01:30:43.591Z,24.38
2022-08-23T01:33:10.570Z,24.45
2022-08-23T01:35:41.299Z,24.42
2022-08-23T01:38:09.158Z,24.29
2022-08-23T01:40:37.194Z,24.26
2022-08-23T01:43:04.822Z,24.16
2022-08-23T01:45:32.416Z,24.02
2022-08-23T01:48:00.337Z,24.27
2022-08-23T01:50:28.169Z,24.21
2022-08-23T01:52:55.137Z,24.09
2022-08-23T01:55:22.078Z,24.13
2022-08-23T01:57:52.972Z,24.15
2022-08-23T02:00:23.468Z,24.14
2022-08-23T02:02:50.180Z,24.02
2022-08-23T02:05:18.783Z,23.99
2022-08-23T02:07:46.810Z,24.01
2022-08-23T02:10:13.538Z,23.95
2022-08-23T02:12:40.397Z,23.91
2022-08-23T02:15:07.854Z,24.03
2022-08-23T02:17:34.956Z,23.88
2022-08-23T02:20:03.129Z,24.21
2022-08-23T02:22:29.994Z,24.24
2022-08-23T02:24:56.843Z,24.22
2022-08-23T02:27:23.836Z,24.22
2022-08-23T02:29:52.122Z,24.68
2022-08-23T02:32:20.051Z,24.70
2022-08-23T02:34:55.694Z,24.31
2022-08-23T02:37:32.086Z,24.16
2022-08-23T02:39:58.706Z,23.90
2022-08-23T02:42:25.431Z,23.88
2022-08-23T02:44:52.079Z,23.99
2022-08-23T02:47:18.933Z,23.82
2022-08-23T02:49:46.183Z,23.75
2022-08-23T02:52:12.886Z,23.71
2022-08-23T02:54:39.554Z,23.75
2022-08-23T02:57:06.467Z,23.68
2022-08-23T02:59:33.212Z,23.89
2022-08-23T03:01:59.983Z,23.57
2022-08-23T03:04:27.000Z,23.84
2022-08-23T03:06:53.938Z,23.87
2022-08-23T03:09:20.478Z,23.92
2022-08-23T03:11:49.669Z,23.77
2022-08-23T03:14:16.955Z,23.60
2022-08-23T03:16:44.416Z,23.33
2022-08-23T03:19:11.171Z,23.31
2022-08-23T03:21:38.487Z,23.13
2022-08-23T03:24:10.269Z,22.92
2022-08-23T03:26:37.395Z,22.77
2022-08-23T03:29:04.446Z,22.86
2022-08-23T03:31:31.298Z,22.88
2022-08-23T03:33:58.642Z,22.80
2022-08-23T03:36:28.007Z,22.76
2022-08-23T03:38:55.627Z,22.85
2022-08-23T03:41:22.594Z,22.84
2022-08-23T03:43:50.609Z,22.87
2022-08-23T03:46:23.697Z,22.71
2022-08-23T03:48:56.128Z,22.91
2022-08-23T03:51:24.120Z,22.91
2022-08-23T03:53:51.214Z,23.28
2022-08-23T03:56:25.683Z,23.35
2022-08-23T03:58:53.162Z,23.27
2022-08-23T04:01:20.219Z,23.08
2022-08-23T04:03:48.439Z,22.76
2022-08-23T04:06:16.402Z,23.08
2022-08-23T04:08:43.763Z,23.08
2022-08-23T04:11:12.215Z,22.88
2022-08-23T04:13:42.995Z,22.78
2022-08-23T04:16:09.953Z,23.13
2022-08-23T04:18:36.639Z,23.23
2022-08-23T04:21:07.703Z,23.35
2022-08-23T04:23:34.304Z,23.21
2022-08-23T04:26:01.830Z,23.07
2022-08-23T04:28:29.639Z,23.02
2022-08-23T04:30:56.596Z,23.12
2022-08-23T04:33:23.682Z,23.16
2022-08-23T04:35:50.499Z,23.44
2022-08-23T04:38:24.140Z,23.47
2022-08-23T04:41:11.546Z,23.49
2022-08-23T04:43:39.162Z,23.57
2022-08-23T04:46:05.822Z,23.68
2022-08-23T04:48:32.733Z,23.83
2022-08-23T04:50:59.378Z,23.75
2022-08-23T04:53:26.195Z,23.81
2022-08-23T04:55:52.819Z,23.74
2022-08-23T04:58:19.551Z,24.04
2022-08-23T05:00:51.618Z,23.99
2022-08-23T05:03:18.612Z,23.85
2022-08-23T05:05:45.718Z,23.77
2022-08-23T05:08:12.343Z,23.48
2022-08-23T05:10:38.962Z,23.42
2022-08-23T05:13:05.590Z,23.14
2022-08-23T05:15:32.242Z,22.75
2022-08-23T05:17:58.805Z,23.31
2022-08-23T05:20:26.161Z,23.24
2022-08-23T05:22:52.754Z,23.15
2022-08-23T05:25:19.651Z,23.25
2022-08-23T05:27:46.958Z,23.36
2022-08-23T05:30:15.192Z,23.39
2022-08-23T05:32:42.136Z,23.42
2022-08-23T05:35:09.274Z,22.69
2022-08-23T05:37:35.923Z,23.48
2022-08-23T05:40:03.181Z,23.67
2022-08-23T05:42:29.883Z,23.57
2022-08-23T05:44:57.282Z,23.48
2022-08-23T05:47:27.111Z,23.92
2022-08-23T05:49:53.748Z,23.76
2022-08-23T05:52:20.711Z,23.89
2022-08-23T05:54:47.470Z,24.02
2022-08-23T05:57:14.143Z,24.06
2022-08-23T05:59:41.927Z,24.10
2022-08-23T06:02:09.628Z,23.97
2022-08-23T06:04:36.307Z,24.29
2022-08-23T06:07:02.991Z,24.29
2022-08-23T06:09:29.729Z,24.36
2022-08-23T06:11:56.372Z,24.44
2022-08-23T06:14:23.684Z,24.35
2022-08-23T06:16:55.602Z,24.62
2022-08-23T06:19:23.820Z,24.62
2022-08-23T06:21:51.378Z,24.66
2022-08-23T06:24:18.251Z,24.76
2022-08-23T06:26:45.430Z,24.88
2022-08-23T06:29:15.738Z,24.95
2022-08-23T06:31:48.732Z,25.04
2022-08-23T06:34:37.091Z,25.12
2022-08-23T06:37:10.306Z,25.11
2022-08-23T06:39:38.335Z,25.12
2022-08-23T06:42:34.410Z,25.14
2022-08-23T06:44:55.775Z,25.14
2022-08-23T06:47:23.163Z,25.17
2022-08-23T06:49:51.081Z,25.34
2022-08-23T06:52:25.783Z,25.26
2022-08-23T06:54:52.567Z,25.37
2022-08-23T06:57:20.392Z,25.26
2022-08-23T06:59:49.191Z,25.46
2022-08-23T07:02:16.170Z,25.43
2022-08-23T07:04:43.008Z,25.61
2022-08-23T07:07:11.944Z,25.56
2022-08-23T07:09:40.849Z,25.59
2022-08-23T07:12:07.832Z,25.13
2022-08-23T07:14:34.555Z,25.35
2022-08-23T07:17:03.704Z,25.46
2022-08-23T07:19:34.099Z,25.83
2022-08-23T07:22:01.992Z,25.85
2022-08-23T07:24:33.380Z,25.72
2022-08-23T07:27:03.924Z,25.76
2022-08-23T07:29:30.524Z,26.00
2022-08-23T07:31:58.035Z,25.98
2022-08-23T07:34:26.198Z,26.07
2022-08-23T07:36:54.381Z,26.16
2022-08-23T07:39:23.692Z,26.12
2022-08-23T07:41:52.679Z,26.07
2022-08-23T07:44:19.941Z,25.65
2022-08-23T07:46:53.174Z,26.15
2022-08-23T07:49:19.877Z,26.19
2022-08-23T07:51:50.476Z,26.29
2022-08-23T07:54:19.085Z,26.41
2022-08-23T07:56:46.416Z,26.48
2022-08-23T07:59:13.824Z,26.37
2022-08-23T08:01:43.689Z,25.93
2022-08-23T08:04:10.863Z,26.16
2022-08-23T08:06:59.927Z,26.36
2022-08-23T08:09:34.717Z,26.39
2022-08-23T08:12:01.747Z,26.49
2022-08-23T08:14:28.458Z,26.57
2022-08-23T08:16:56.317Z,26.55
2022-08-23T08:19:23.247Z,26.33
2022-08-23T08:21:51.319Z,26.31
2022-08-23T08:24:19.407Z,26.43
2022-08-23T08:26:46.667Z,26.49
2022-08-23T08:29:14.403Z,26.56
2022-08-23T08:31:44.496Z,26.61
2022-08-23T08:34:12.081Z,26.66
2022-08-23T08:36:42.619Z,26.61
2022-08-23T08:39:15.102Z,26.79
2022-08-23T08:42:09.584Z,26.89
2022-08-23T08:44:47.532Z,27.05
2022-08-23T08:47:19.502Z,26.32
2022-08-23T08:50:05.480Z,27.21
2022-08-23T08:52:47.316Z,27.14
2022-08-23T08:55:20.713Z,27.20
2022-08-23T08:57:52.164Z,27.24
2022-08-23T09:00:32.687Z,26.91
2022-08-23T09:03:04.364Z,26.88
2022-08-23T09:05:34.378Z,27.35
2022-08-23T09:08:35.248Z,27.33
2022-08-23T09:11:23.424Z,27.37
2022-08-23T09:13:53.868Z,27.58
2022-08-23T09:16:32.739Z,27.67
2022-08-23T09:19:02.378Z,27.81
2022-08-23T09:21:40.775Z,27.90
2022-08-23T09:24:07.485Z,27.77
2022-08-23T09:26:34.082Z,28.08
2022-08-23T09:29:32.174Z,28.17
2022-08-23T09:32:04.278Z,28.41
2022-08-23T09:34:30.808Z,28.56
2022-08-23T09:37:24.737Z,28.73
2022-08-23T09:40:12.972Z,28.99
2022-08-23T09:42:41.225Z,29.14
2022-08-23T09:45:51.155Z,29.24
2022-08-23T09:48:44.783Z,29.17
2022-08-23T09:51:25.263Z,29.11
2022-08-23T09:54:07.711Z,29.35
2022-08-23T09:56:38.749Z,29.55
2022-08-23T09:59:40.546Z,29.57
2022-08-23T10:02:15.728Z,29.87
2022-08-23T10:04:47.364Z,30.09
2022-08-23T10:07:42.582Z,30.23
2022-08-23T10:10:30.460Z,30.26
2022-08-23T10:12:59.117Z,30.34
2022-08-23T10:15:45.333Z,30.33
2022-08-23T10:18:26.691Z,30.73
2022-08-23T10:21:21.074Z,30.61
2022-08-23T10:24:09.212Z,30.56
2022-08-23T10:26:45.287Z,30.94
2022-08-23T10:29:37.326Z,31.19
2022-08-23T10:32:24.351Z,31.16
2022-08-23T10:35:15.856Z,31.70
2022-08-23T10:38:06.643Z,31.71
2022-08-23T10:40:36.171Z,31.87
2022-08-23T10:43:26.228Z,32.17
2022-08-23T10:46:00.197Z,32.48
2022-08-23T10:48:54.533Z,32.55
2022-08-23T10:51:31.749Z,32.67
2022-08-23T10:54:00.637Z,32.74
2022-08-23T10:56:28.803Z,32.88
2022-08-23T10:59:00.547Z,32.84
2022-08-23T11:01:55.258Z,32.66
2022-08-23T11:04:47.253Z,32.85
2022-08-23T11:07:34.370Z,33.03
2022-08-23T11:10:25.116Z,33.17
2022-08-23T11:13:01.678Z,33.51
2022-08-23T11:15:39.446Z,33.59
2022-08-23T11:18:34.543Z,33.56
2022-08-23T11:21:19.484Z,33.61
2022-08-23T11:23:49.343Z,34.26
2022-08-23T11:26:22.438Z,34.34
2022-08-23T11:28:52.069Z,34.34
2022-08-23T11:31:34.818Z,34.18
2022-08-23T11:34:05.741Z,33.53
2022-08-23T11:36:33.426Z,34.16
2022-08-23T11:39:06.939Z,34.09
2022-08-23T11:41:56.134Z,34.42
2022-08-23T11:44:27.722Z,34.58
2022-08-23T11:46:55.366Z,34.76
2022-08-23T11:49:57.460Z,34.65
2022-08-23T11:52:30.155Z,35.17
2022-08-23T11:55:15.102Z,34.87
2022-08-23T11:57:57.056Z,35.34
2022-08-23T12:00:34.262Z,35.60
2022-08-23T12:03:05.456Z,35.52
2022-08-23T12:05:35.179Z,35.40
2022-08-23T12:08:02.627Z,35.91
2022-08-23T12:10:41.661Z,35.67
2022-08-23T12:13:20.605Z,35.88
2022-08-23T12:16:16.520Z,35.73
2022-08-23T12:18:53.433Z,35.93
2022-08-23T12:21:52.070Z,36.12
2022-08-23T12:24:32.735Z,36.38
2022-08-23T12:26:59.246Z,36.73
2022-08-23T12:29:50.927Z,36.88
2022-08-23T12:32:31.392Z,36.28
2022-08-23T12:35:16.308Z,37.08
2022-08-23T12:38:06.127Z,37.19
2022-08-23T12:40:43.206Z,37.04
2022-08-23T12:43:28.651Z,37.28
2022-08-23T12:45:58.384Z,37.56
2022-08-23T12:48:29.210Z,37.63
2022-08-23T12:51:17.258Z,38.13
2022-08-23T12:53:45.811Z,38.08
2022-08-23T12:56:22.879Z,38.26
2022-08-23T12:59:05.022Z,38.04
2022-08-23T13:01:36.652Z,38.54
2022-08-23T13:04:11.487Z,38.66
2022-08-23T13:06:52.997Z,38.55
2022-08-23T13:09:27.200Z,38.58
2022-08-23T13:11:56.022Z,38.36
2022-08-23T13:14:34.059Z,37.87
2022-08-23T13:17:31.673Z,37.00
2022-08-23T13:20:01.359Z,36.76
2022-08-23T13:22:31.175Z,36.46
2022-08-23T13:25:32.157Z,35.95
2022-08-23T13:28:05.406Z,35.45
2022-08-23T13:30:36.930Z,35.21
2022-08-23T13:33:10.705Z,35.08
2022-08-23T13:35:47.208Z,34.83
2022-08-23T13:38:32.285Z,34.61
2022-08-23T13:41:10.549Z,34.52
2022-08-23T13:43:51.107Z,34.07
2022-08-23T13:46:29.848Z,33.88
2022-08-23T13:49:10.458Z,33.42
2022-08-23T13:51:40.065Z,33.44
2022-08-23T13:54:09.805Z,33.31
2022-08-23T13:56:50.159Z,33.55
2022-08-23T13:59:31.132Z,33.30
2022-08-23T14:02:05.632Z,32.88
2022-08-23T14:04:33.069Z,32.77
2022-08-23T14:06:59.779Z,32.74
2022-08-23T14:09:26.525Z,32.87
2022-08-23T14:11:57.850Z,32.77
2022-08-23T14:14:31.331Z,32.53
2022-08-23T14:17:02.455Z,32.49
2022-08-23T14:22:18.783Z,32.60
2022-08-23T14:24:45.658Z,32.57
2022-08-23T14:27:12.728Z,32.37
2022-08-23T14:29:39.399Z,32.48
2022-08-23T14:32:06.522Z,32.32
2022-08-23T14:34:33.184Z,32.20
2022-08-23T14:39:46.590Z,31.91
2022-08-23T14:42:17.141Z,32.02
2022-08-23T14:44:43.768Z,32.32
2022-08-23T14:47:10.512Z,31.75
2022-08-23T14:49:37.055Z,32.20
2022-08-23T14:52:04.197Z,32.30
2022-08-23T14:54:31.247Z,32.04
2022-08-23T14:56:58.076Z,31.84
2022-08-23T14:59:24.845Z,32.01
2022-08-23T15:01:53.515Z,31.80
2022-08-23T15:04:23.235Z,31.34
2022-08-23T15:07:16.020Z,31.52
2022-08-23T15:09:38.394Z,31.66
2022-08-23T15:14:57.176Z,31.52
2022-08-23T15:17:28.755Z,31.53
2022-08-23T15:19:57.792Z,31.57
2022-08-23T15:22:24.469Z,31.15
2022-08-23T15:24:52.652Z,31.43
2022-08-23T15:27:19.905Z,31.57
2022-08-23T15:29:46.542Z,31.39
2022-08-23T15:32:13.240Z,31.29
2022-08-23T15:34:45.612Z,31.32
2022-08-23T15:37:14.293Z,31.12
2022-08-23T15:39:42.176Z,30.97
2022-08-23T15:42:08.970Z,31.39
2022-08-23T15:44:35.481Z,30.96
2022-08-23T15:47:04.791Z,31.34
2022-08-23T15:49:36.206Z,31.32
2022-08-23T15:52:04.076Z,30.85
2022-08-23T15:54:30.699Z,30.85
2022-08-23T15:56:57.924Z,31.02
2022-08-23T15:59:25.097Z,31.05
2022-08-23T16:01:51.847Z,31.32
2022-08-23T16:04:18.656Z,31.15
2022-08-23T16:06:45.702Z,31.11
2022-08-23T16:09:20.865Z,30.81
2022-08-23T16:11:48.501Z,31.05
2022-08-23T16:14:15.694Z,30.67
2022-08-23T16:16:46.523Z,30.92
2022-08-23T16:19:14.286Z,30.79
2022-08-23T16:21:43.576Z,30.80
2022-08-23T16:24:10.339Z,30.93
2022-08-23T16:26:39.374Z,30.97
2022-08-23T16:29:10.444Z,30.71
2022-08-23T16:31:39.905Z,30.81
2022-08-23T16:34:12.747Z,29.46
2022-08-23T16:36:41.951Z,30.38
2022-08-23T16:39:11.644Z,30.51
2022-08-23T16:41:38.593Z,30.69
2022-08-23T16:44:05.818Z,30.64
2022-08-23T16:46:32.594Z,30.55
2022-08-23T16:48:59.207Z,30.49
2022-08-23T16:51:26.167Z,30.48
2022-08-23T16:54:01.653Z,30.40
2022-08-23T16:56:31.123Z,30.15
2022-08-23T16:58:58.360Z,29.78
2022-08-23T17:01:25.137Z,30.23
2022-08-23T17:03:52.003Z,30.09
2022-08-23T17:06:18.995Z,29.92
2022-08-23T17:08:45.710Z,30.10
2022-08-23T17:11:18.243Z,29.69
2022-08-23T17:13:45.098Z,29.94
2022-08-23T17:16:11.831Z,30.08
2022-08-23T17:18:39.055Z,30.07
2022-08-23T17:21:05.938Z,30.03
2022-08-23T17:23:37.715Z,29.98
2022-08-23T17:26:07.539Z,30.00
2022-08-23T17:28:34.160Z,30.16
2022-08-23T17:31:01.442Z,29.84
2022-08-23T17:33:28.051Z,29.96
2022-08-23T17:35:54.661Z,29.30
2022-08-23T17:38:21.317Z,29.92
2022-08-23T17:40:48.146Z,29.81
2022-08-23T17:43:14.883Z,29.74
2022-08-23T17:45:45.182Z,29.53
2022-08-23T17:48:13.035Z,29.60
2022-08-23T17:50:40.219Z,29.54
2022-08-23T17:53:07.073Z,29.73
2022-08-23T17:55:35.280Z,29.41
2022-08-23T17:58:03.856Z,29.41
2022-08-23T18:00:33.024Z,29.29
2022-08-23T18:02:59.881Z,29.34
2022-08-23T18:05:27.619Z,29.21
2022-08-23T18:07:54.265Z,29.33
2022-08-23T18:10:21.811Z,28.66
2022-08-23T18:12:48.425Z,29.24
2022-08-23T18:15:15.188Z,29.13
2022-08-23T18:17:41.882Z,29.07
2022-08-23T18:20:11.225Z,27.75
2022-08-23T18:22:38.923Z,28.94
2022-08-23T18:25:08.941Z,28.70
2022-08-23T18:27:54.807Z,28.95
2022-08-23T18:30:21.802Z,29.01
2022-08-23T18:32:48.484Z,28.90
2022-08-23T18:35:15.385Z,28.26
2022-08-23T18:37:42.284Z,28.89
2022-08-23T18:40:10.436Z,28.87
2022-08-23T18:42:37.435Z,28.63
2022-08-23T18:45:05.970Z,28.81
2022-08-23T18:47:34.687Z,28.75
2022-08-23T18:50:01.397Z,28.33
2022-08-23T18:52:30.247Z,28.74
2022-08-23T18:54:58.221Z,28.77
2022-08-23T18:57:24.965Z,28.48
2022-08-23T18:59:51.751Z,28.84
2022-08-23T19:02:18.489Z,28.71
2022-08-23T19:04:46.077Z,28.58
2022-08-23T19:07:12.897Z,28.69
2022-08-23T19:09:39.759Z,27.98
2022-08-23T19:12:06.775Z,28.47
2022-08-23T19:14:35.669Z,28.47
2022-08-23T19:17:08.038Z,27.08
2022-08-23T19:19:35.699Z,28.28
2022-08-23T19:22:03.501Z,27.55
2022-08-23T19:24:30.545Z,28.27
2022-08-23T19:26:57.228Z,27.56
2022-08-23T19:29:23.841Z,28.15
2022-08-23T19:31:50.694Z,27.90
2022-08-23T19:34:19.552Z,27.83
2022-08-23T19:36:56.745Z,28.03
2022-08-23T19:39:27.725Z,27.91
2022-08-23T19:41:54.377Z,27.81
2022-08-23T19:44:21.450Z,27.45
2022-08-23T19:46:48.392Z,27.92
2022-08-23T19:49:15.437Z,27.73
2022-08-23T19:51:43.732Z,27.94
2022-08-23T19:54:12.594Z,27.87
2022-08-23T19:56:46.814Z,27.62
2022-08-23T19:59:20.315Z,27.67
2022-08-23T20:01:49.236Z,27.54
2022-08-23T20:04:17.281Z,27.71
2022-08-23T20:06:44.003Z,27.42
2022-08-23T20:09:11.364Z,27.66
2022-08-23T20:11:39.046Z,27.52
2022-08-23T20:14:05.965Z,27.50
2022-08-23T20:16:33.221Z,27.38
2022-08-23T20:19:01.118Z,26.92
2022-08-23T20:21:28.459Z,27.39
2022-08-23T20:24:02.053Z,27.38
2022-08-23T20:26:30.124Z,27.01
2022-08-23T20:29:00.193Z,27.23
2022-08-23T20:31:31.944Z,27.17
2022-08-23T20:33:59.417Z,26.92
2022-08-23T20:36:28.209Z,26.90
2022-08-23T20:38:59.983Z,27.08
2022-08-23T20:41:33.614Z,27.11
2022-08-23T20:44:00.991Z,26.78
2022-08-23T20:46:28.057Z,27.19
2022-08-23T20:48:57.930Z,26.59
2022-08-23T20:51:26.033Z,27.21
2022-08-23T20:53:52.880Z,27.13
2022-08-23T20:56:20.510Z,27.14
2022-08-23T20:58:47.334Z,27.12
2022-08-23T21:01:15.959Z,26.65
2022-08-23T21:03:43.006Z,26.81
2022-08-23T21:06:16.175Z,27.21
2022-08-23T21:08:48.699Z,26.99
2022-08-23T21:11:15.523Z,26.77
2022-08-23T21:13:44.174Z,27.17
2022-08-23T21:16:15.852Z,26.94
2022-08-23T21:18:42.952Z,26.00
2022-08-23T21:21:09.930Z,26.97
2022-08-23T21:23:37.406Z,27.04
2022-08-23T21:26:05.714Z,26.96
2022-08-23T21:28:32.608Z,26.63
2022-08-23T21:31:08.010Z,26.80
2022-08-23T21:33:39.796Z,26.72
2022-08-23T21:36:08.953Z,26.73
2022-08-23T21:38:36.307Z,26.59
2022-08-23T21:41:05.717Z,26.20
2022-08-23T21:43:33.850Z,26.14
2022-08-23T21:46:00.532Z,26.46
2022-08-23T21:48:27.175Z,26.01
2022-08-23T21:50:54.171Z,26.37
2022-08-23T21:53:20.859Z,25.88
2022-08-23T21:55:47.525Z,26.40
2022-08-23T21:58:14.284Z,26.39
2022-08-23T22:00:42.226Z,26.30
2022-08-23T22:03:09.389Z,26.31
2022-08-23T22:05:54.365Z,26.34
2022-08-23T22:08:21.051Z,26.39
2022-08-23T22:10:56.781Z,26.47
2022-08-23T22:13:24.796Z,26.52
2022-08-23T22:15:53.473Z,26.47
2022-08-23T22:18:21.857Z,26.28
2022-08-23T22:20:48.509Z,26.37
2022-08-23T22:23:15.223Z,26.50
2022-08-23T22:25:41.805Z,26.43
2022-08-23T22:28:08.602Z,26.35
2022-08-23T22:30:35.490Z,26.27
2022-08-23T22:33:03.351Z,26.26
2022-08-23T22:35:34.348Z,26.03
2022-08-23T22:38:13.643Z,26.00
2022-08-23T22:40:47.592Z,25.92
2022-08-23T22:43:14.282Z,25.97
2022-08-23T22:45:56.176Z,25.82
2022-08-23T22:48:24.421Z,25.93
2022-08-23T22:50:51.219Z,25.48
2022-08-23T22:53:19.357Z,26.06
2022-08-23T22:55:50.681Z,25.96
2022-08-23T22:58:17.228Z,25.94
2022-08-23T23:00:43.929Z,25.98
2022-08-23T23:03:10.713Z,25.92
2022-08-23T23:05:37.670Z,26.15
2022-08-23T23:08:23.383Z,25.92
2022-08-23T23:10:50.133Z,25.57
2022-08-23T23:13:16.794Z,25.97
2022-08-23T23:15:43.559Z,25.92
2022-08-23T23:18:10.195Z,25.79
2022-08-23T23:20:38.000Z,25.73
2022-08-23T23:23:18.495Z,25.91
2022-08-23T23:25:46.190Z,25.80
2022-08-23T23:28:14.440Z,25.63
2022-08-23T23:30:43.440Z,25.61
2022-08-23T23:33:10.360Z,25.37
2022-08-23T23:35:37.681Z,25.66
2022-08-23T23:38:05.520Z,25.44
2022-08-23T23:40:33.617Z,25.41
2022-08-23T23:43:00.503Z,25.52
2022-08-23T23:45:27.968Z,25.37
2022-08-23T23:47:54.921Z,25.34
2022-08-23T23:50:22.384Z,24.55
2022-08-23T23:52:49.050Z,25.01
2022-08-23T23:55:17.949Z,25.25
2022-08-23T23:57:44.672Z,25.16
